sensor_id;sensor_type;location;lat;lon;timestamp;P1;durP1;ratioP1;P2;durP2;ratioP2
1206;SDS011;593;53.184;8.216;2023-04-30T00:02:12;2.27;;;2.17;;
1206;SDS011;593;53.184;8.216;2023-04-30T00:04:37;7.00;;;1.70;;
1206;SDS011;593;53.184;8.216;2023-04-30T00:07:03;4.10;;;2.47;;
1206;SDS011;593;53.184;8.216;2023-04-30T00:09:28;4.30;;;2.07;;
1206;SDS011;593;53.184;8.216;2023-04-30T00:11:53;2.60;;;1.77;;
1206;SDS011;593;53.184;8.216;2023-04-30T00:14:19;2.30;;;2.10;;
1206;SDS011;593;53.184;8.216;2023-04-30T00:16:45;4.60;;;2.37;;
1206;SDS011;593;53.184;8.216;2023-04-30T00:19:10;3.30;;;1.90;;
1206;SDS011;593;53.184;8.216;2023-04-30T00:21:35;1.77;;;1.67;;
1206;SDS011;593;53.184;8.216;2023-04-30T00:24:01;3.93;;;1.73;;
1206;SDS011;593;53.184;8.216;2023-04-30T00:26:26;2.63;;;1.57;;
1206;SDS011;593;53.184;8.216;2023-04-30T00:28:51;3.60;;;1.90;;
1206;SDS011;593;53.184;8.216;2023-04-30T00:31:17;2.30;;;2.10;;
1206;SDS011;593;53.184;8.216;2023-04-30T00:33:42;2.40;;;2.20;;
1206;SDS011;593;53.184;8.216;2023-04-30T00:36:07;4.03;;;1.67;;
1206;SDS011;593;53.184;8.216;2023-04-30T00:38:33;3.00;;;1.50;;
1206;SDS011;593;53.184;8.216;2023-04-30T00:40:58;5.27;;;2.60;;
1206;SDS011;593;53.184;8.216;2023-04-30T00:43:24;5.27;;;2.10;;
1206;SDS011;593;53.184;8.216;2023-04-30T00:45:49;5.10;;;2.70;;
1206;SDS011;593;53.184;8.216;2023-04-30T00:48:15;3.37;;;2.20;;
1206;SDS011;593;53.184;8.216;2023-04-30T00:50:40;2.43;;;1.93;;
1206;SDS011;593;53.184;8.216;2023-04-30T00:53:08;1.90;;;1.70;;
1206;SDS011;593;53.184;8.216;2023-04-30T00:55:37;3.05;;;1.90;;
1206;SDS011;593;53.184;8.216;2023-04-30T00:58:04;6.18;;;2.17;;
1206;SDS011;593;53.184;8.216;2023-04-30T01:00:30;2.63;;;1.80;;
1206;SDS011;593;53.184;8.216;2023-04-30T01:02:55;1.70;;;1.60;;
1206;SDS011;593;53.184;8.216;2023-04-30T01:05:21;2.53;;;1.80;;
1206;SDS011;593;53.184;8.216;2023-04-30T01:07:47;2.53;;;1.90;;
1206;SDS011;593;53.184;8.216;2023-04-30T01:10:13;2.08;;;1.60;;
1206;SDS011;593;53.184;8.216;2023-04-30T01:12:45;2.30;;;2.00;;
1206;SDS011;593;53.184;8.216;2023-04-30T01:20:21;3.58;;;1.40;;
1206;SDS011;593;53.184;8.216;2023-04-30T01:22:54;1.98;;;1.80;;
1206;SDS011;593;53.184;8.216;2023-04-30T01:28:14;3.83;;;1.50;;
1206;SDS011;593;53.184;8.216;2023-04-30T01:30:41;3.70;;;2.13;;
1206;SDS011;593;53.184;8.216;2023-04-30T01:33:10;3.35;;;1.73;;
1206;SDS011;593;53.184;8.216;2023-04-30T01:43:44;4.50;;;1.63;;
1206;SDS011;593;53.184;8.216;2023-04-30T01:46:32;2.88;;;1.90;;
1206;SDS011;593;53.184;8.216;2023-04-30T01:49:17;4.75;;;1.70;;
1206;SDS011;593;53.184;8.216;2023-04-30T01:51:56;6.10;;;1.95;;
1206;SDS011;593;53.184;8.216;2023-04-30T01:54:44;3.38;;;1.90;;
1206;SDS011;593;53.184;8.216;2023-04-30T01:57:12;2.38;;;1.83;;
1206;SDS011;593;53.184;8.216;2023-04-30T01:59:44;2.65;;;2.05;;
1206;SDS011;593;53.184;8.216;2023-04-30T02:02:10;4.72;;;2.63;;
1206;SDS011;593;53.184;8.216;2023-04-30T02:04:35;2.93;;;2.10;;
1206;SDS011;593;53.184;8.216;2023-04-30T02:07:01;5.93;;;2.73;;
1206;SDS011;593;53.184;8.216;2023-04-30T02:09:26;1.97;;;1.60;;
1206;SDS011;593;53.184;8.216;2023-04-30T02:11:51;1.97;;;1.40;;
1206;SDS011;593;53.184;8.216;2023-04-30T02:14:17;4.90;;;2.00;;
1206;SDS011;593;53.184;8.216;2023-04-30T02:16:42;1.93;;;1.70;;
1206;SDS011;593;53.184;8.216;2023-04-30T02:19:07;2.87;;;1.70;;
1206;SDS011;593;53.184;8.216;2023-04-30T02:21:33;2.47;;;1.87;;
1206;SDS011;593;53.184;8.216;2023-04-30T02:23:58;1.73;;;1.60;;
1206;SDS011;593;53.184;8.216;2023-04-30T02:26:23;1.80;;;1.40;;
1206;SDS011;593;53.184;8.216;2023-04-30T02:28:50;1.80;;;1.70;;
1206;SDS011;593;53.184;8.216;2023-04-30T02:31:15;2.87;;;1.80;;
1206;SDS011;593;53.184;8.216;2023-04-30T02:33:41;1.83;;;1.57;;
1206;SDS011;593;53.184;8.216;2023-04-30T02:36:06;2.57;;;1.77;;
1206;SDS011;593;53.184;8.216;2023-04-30T02:38:32;3.33;;;1.90;;
1206;SDS011;593;53.184;8.216;2023-04-30T02:40:57;2.17;;;2.03;;
1206;SDS011;593;53.184;8.216;2023-04-30T02:43:22;1.63;;;1.40;;
1206;SDS011;593;53.184;8.216;2023-04-30T02:45:47;2.10;;;1.87;;
1206;SDS011;593;53.184;8.216;2023-04-30T02:48:13;2.83;;;2.00;;
1206;SDS011;593;53.184;8.216;2023-04-30T02:50:38;6.93;;;2.20;;
1206;SDS011;593;53.184;8.216;2023-04-30T02:53:03;2.00;;;1.40;;
1206;SDS011;593;53.184;8.216;2023-04-30T02:55:29;2.27;;;1.60;;
1206;SDS011;593;53.184;8.216;2023-04-30T02:57:55;3.50;;;2.03;;
1206;SDS011;593;53.184;8.216;2023-04-30T03:00:20;5.03;;;1.70;;
1206;SDS011;593;53.184;8.216;2023-04-30T03:02:45;1.50;;;1.40;;
1206;SDS011;593;53.184;8.216;2023-04-30T03:05:11;3.03;;;1.70;;
1206;SDS011;593;53.184;8.216;2023-04-30T03:07:39;7.53;;;1.85;;
1206;SDS011;593;53.184;8.216;2023-04-30T03:10:04;1.37;;;1.27;;
1206;SDS011;593;53.184;8.216;2023-04-30T03:12:30;4.15;;;3.03;;
1206;SDS011;593;53.184;8.216;2023-04-30T03:14:55;2.13;;;2.03;;
1206;SDS011;593;53.184;8.216;2023-04-30T03:17:20;3.17;;;1.70;;
1206;SDS011;593;53.184;8.216;2023-04-30T03:19:47;2.03;;;1.92;;
1206;SDS011;593;53.184;8.216;2023-04-30T03:22:12;2.80;;;1.80;;
1206;SDS011;593;53.184;8.216;2023-04-30T03:24:38;3.23;;;1.90;;
1206;SDS011;593;53.184;8.216;2023-04-30T03:27:03;3.07;;;1.57;;
1206;SDS011;593;53.184;8.216;2023-04-30T03:29:28;3.17;;;1.87;;
1206;SDS011;593;53.184;8.216;2023-04-30T03:31:53;4.60;;;2.00;;
1206;SDS011;593;53.184;8.216;2023-04-30T03:34:19;2.20;;;1.93;;
1206;SDS011;593;53.184;8.216;2023-04-30T03:36:44;5.57;;;1.57;;
1206;SDS011;593;53.184;8.216;2023-04-30T03:39:09;5.97;;;1.87;;
1206;SDS011;593;53.184;8.216;2023-04-30T03:41:35;3.40;;;2.00;;
1206;SDS011;593;53.184;8.216;2023-04-30T03:44:00;2.50;;;2.30;;
1206;SDS011;593;53.184;8.216;2023-04-30T03:46:26;2.40;;;2.20;;
1206;SDS011;593;53.184;8.216;2023-04-30T03:48:51;2.77;;;1.63;;
1206;SDS011;593;53.184;8.216;2023-04-30T03:51:18;2.03;;;1.83;;
1206;SDS011;593;53.184;8.216;2023-04-30T03:53:44;1.60;;;1.50;;
1206;SDS011;593;53.184;8.216;2023-04-30T03:56:10;3.33;;;1.67;;
1206;SDS011;593;53.184;8.216;2023-04-30T03:58:35;1.77;;;1.67;;
1206;SDS011;593;53.184;8.216;2023-04-30T04:01:01;3.23;;;1.80;;
1206;SDS011;593;53.184;8.216;2023-04-30T04:03:26;2.53;;;1.93;;
1206;SDS011;593;53.184;8.216;2023-04-30T04:05:51;3.10;;;1.77;;
1206;SDS011;593;53.184;8.216;2023-04-30T04:08:17;3.53;;;1.97;;
1206;SDS011;593;53.184;8.216;2023-04-30T04:10:42;3.33;;;2.03;;
1206;SDS011;593;53.184;8.216;2023-04-30T04:13:07;3.37;;;1.93;;
1206;SDS011;593;53.184;8.216;2023-04-30T04:15:33;2.30;;;1.63;;
1206;SDS011;593;53.184;8.216;2023-04-30T04:17:58;2.07;;;1.53;;
1206;SDS011;593;53.184;8.216;2023-04-30T04:20:24;5.00;;;1.53;;
1206;SDS011;593;53.184;8.216;2023-04-30T04:22:49;1.60;;;1.47;;
1206;SDS011;593;53.184;8.216;2023-04-30T04:25:14;1.63;;;1.50;;
1206;SDS011;593;53.184;8.216;2023-04-30T04:27:42;1.60;;;1.50;;
1206;SDS011;593;53.184;8.216;2023-04-30T04:30:07;3.53;;;2.10;;
1206;SDS011;593;53.184;8.216;2023-04-30T04:32:33;2.07;;;1.70;;
1206;SDS011;593;53.184;8.216;2023-04-30T04:35:10;2.20;;;2.00;;
1206;SDS011;593;53.184;8.216;2023-04-30T04:37:36;3.55;;;2.03;;
1206;SDS011;593;53.184;8.216;2023-04-30T04:40:02;2.90;;;1.90;;
1206;SDS011;593;53.184;8.216;2023-04-30T04:42:29;3.58;;;2.13;;
1206;SDS011;593;53.184;8.216;2023-04-30T04:44:54;2.70;;;1.43;;
1206;SDS011;593;53.184;8.216;2023-04-30T04:47:20;2.10;;;1.67;;
1206;SDS011;593;53.184;8.216;2023-04-30T04:49:45;3.47;;;1.83;;
1206;SDS011;593;53.184;8.216;2023-04-30T04:52:11;3.20;;;1.70;;
1206;SDS011;593;53.184;8.216;2023-04-30T04:54:36;2.13;;;1.87;;
1206;SDS011;593;53.184;8.216;2023-04-30T04:57:01;4.10;;;1.63;;
1206;SDS011;593;53.184;8.216;2023-04-30T04:59:27;2.20;;;1.80;;
1206;SDS011;593;53.184;8.216;2023-04-30T05:01:53;3.45;;;1.73;;
1206;SDS011;593;53.184;8.216;2023-04-30T05:04:18;1.73;;;1.33;;
1206;SDS011;593;53.184;8.216;2023-04-30T05:06:43;2.60;;;1.93;;
1206;SDS011;593;53.184;8.216;2023-04-30T05:09:09;3.17;;;1.80;;
1206;SDS011;593;53.184;8.216;2023-04-30T05:11:34;2.70;;;1.67;;
1206;SDS011;593;53.184;8.216;2023-04-30T05:14:00;2.00;;;1.80;;
1206;SDS011;593;53.184;8.216;2023-04-30T05:16:25;3.70;;;1.67;;
1206;SDS011;593;53.184;8.216;2023-04-30T05:18:50;3.13;;;2.07;;
1206;SDS011;593;53.184;8.216;2023-04-30T05:21:16;2.70;;;2.50;;
1206;SDS011;593;53.184;8.216;2023-04-30T05:23:41;3.53;;;2.30;;
1206;SDS011;593;53.184;8.216;2023-04-30T05:26:06;3.97;;;2.40;;
1206;SDS011;593;53.184;8.216;2023-04-30T05:28:32;2.77;;;1.70;;
1206;SDS011;593;53.184;8.216;2023-04-30T05:30:57;2.70;;;2.50;;
1206;SDS011;593;53.184;8.216;2023-04-30T05:33:23;4.23;;;3.60;;
1206;SDS011;593;53.184;8.216;2023-04-30T05:35:48;3.03;;;2.47;;
1206;SDS011;593;53.184;8.216;2023-04-30T05:38:13;4.73;;;2.27;;
1206;SDS011;593;53.184;8.216;2023-04-30T05:40:39;3.27;;;2.90;;
1206;SDS011;593;53.184;8.216;2023-04-30T05:43:04;5.10;;;2.40;;
1206;SDS011;593;53.184;8.216;2023-04-30T05:45:30;3.40;;;2.60;;
1206;SDS011;593;53.184;8.216;2023-04-30T05:47:55;2.80;;;2.60;;
1206;SDS011;593;53.184;8.216;2023-04-30T05:50:20;4.20;;;3.17;;
1206;SDS011;593;53.184;8.216;2023-04-30T05:52:46;3.10;;;2.23;;
1206;SDS011;593;53.184;8.216;2023-04-30T05:55:11;6.80;;;3.70;;
1206;SDS011;593;53.184;8.216;2023-04-30T05:57:36;9.00;;;3.33;;
1206;SDS011;593;53.184;8.216;2023-04-30T06:00:02;2.43;;;2.23;;
1206;SDS011;593;53.184;8.216;2023-04-30T06:02:30;7.63;;;3.00;;
1206;SDS011;593;53.184;8.216;2023-04-30T06:04:56;5.20;;;2.80;;
1206;SDS011;593;53.184;8.216;2023-04-30T06:07:21;4.90;;;2.70;;
1206;SDS011;593;53.184;8.216;2023-04-30T06:09:46;6.03;;;2.33;;
1206;SDS011;593;53.184;8.216;2023-04-30T06:12:11;9.90;;;2.97;;
1206;SDS011;593;53.184;8.216;2023-04-30T06:14:37;3.90;;;2.13;;
1206;SDS011;593;53.184;8.216;2023-04-30T06:17:03;5.77;;;2.70;;
1206;SDS011;593;53.184;8.216;2023-04-30T06:19:28;4.20;;;2.33;;
1206;SDS011;593;53.184;8.216;2023-04-30T06:21:53;5.30;;;2.30;;
1206;SDS011;593;53.184;8.216;2023-04-30T06:24:19;5.33;;;2.60;;
1206;SDS011;593;53.184;8.216;2023-04-30T06:26:44;4.00;;;3.20;;
1206;SDS011;593;53.184;8.216;2023-04-30T06:29:09;4.90;;;2.30;;
1206;SDS011;593;53.184;8.216;2023-04-30T06:31:35;3.77;;;2.33;;
1206;SDS011;593;53.184;8.216;2023-04-30T06:34:00;5.60;;;2.37;;
1206;SDS011;593;53.184;8.216;2023-04-30T06:36:25;11.40;;;2.80;;
1206;SDS011;593;53.184;8.216;2023-04-30T06:38:51;3.37;;;2.40;;
1206;SDS011;593;53.184;8.216;2023-04-30T06:41:16;6.43;;;2.30;;
1206;SDS011;593;53.184;8.216;2023-04-30T06:43:42;6.63;;;1.97;;
1206;SDS011;593;53.184;8.216;2023-04-30T06:46:07;2.83;;;1.90;;
1206;SDS011;593;53.184;8.216;2023-04-30T06:48:33;3.00;;;2.03;;
1206;SDS011;593;53.184;8.216;2023-04-30T06:50:58;4.90;;;1.70;;
1206;SDS011;593;53.184;8.216;2023-04-30T06:53:23;2.97;;;1.43;;
1206;SDS011;593;53.184;8.216;2023-04-30T06:55:49;5.03;;;2.03;;
1206;SDS011;593;53.184;8.216;2023-04-30T06:58:15;2.63;;;1.60;;
1206;SDS011;593;53.184;8.216;2023-04-30T07:00:41;2.90;;;1.60;;
1206;SDS011;593;53.184;8.216;2023-04-30T07:03:06;2.25;;;2.00;;
1206;SDS011;593;53.184;8.216;2023-04-30T07:05:32;2.70;;;1.60;;
1206;SDS011;593;53.184;8.216;2023-04-30T07:07:59;3.67;;;1.50;;
1206;SDS011;593;53.184;8.216;2023-04-30T07:10:27;5.20;;;2.03;;
1206;SDS011;593;53.184;8.216;2023-04-30T07:12:52;5.53;;;1.50;;
1206;SDS011;593;53.184;8.216;2023-04-30T07:15:17;2.60;;;2.40;;
1206;SDS011;593;53.184;8.216;2023-04-30T07:17:43;4.17;;;1.80;;
1206;SDS011;593;53.184;8.216;2023-04-30T07:20:09;2.33;;;1.90;;
1206;SDS011;593;53.184;8.216;2023-04-30T07:22:34;1.90;;;1.47;;
1206;SDS011;593;53.184;8.216;2023-04-30T07:25:00;3.77;;;1.90;;
1206;SDS011;593;53.184;8.216;2023-04-30T07:27:26;2.60;;;1.50;;
1206;SDS011;593;53.184;8.216;2023-04-30T07:29:52;1.93;;;1.67;;
1206;SDS011;593;53.184;8.216;2023-04-30T07:32:18;2.37;;;1.83;;
1206;SDS011;593;53.184;8.216;2023-04-30T07:34:44;4.07;;;1.67;;
1206;SDS011;593;53.184;8.216;2023-04-30T07:37:09;4.80;;;1.73;;
1206;SDS011;593;53.184;8.216;2023-04-30T07:39:35;3.80;;;1.70;;
1206;SDS011;593;53.184;8.216;2023-04-30T07:42:03;9.00;;;1.93;;
1206;SDS011;593;53.184;8.216;2023-04-30T07:44:29;1.57;;;1.20;;
1206;SDS011;593;53.184;8.216;2023-04-30T07:46:55;5.13;;;2.00;;
1206;SDS011;593;53.184;8.216;2023-04-30T07:49:21;4.80;;;2.10;;
1206;SDS011;593;53.184;8.216;2023-04-30T07:51:46;5.70;;;1.93;;
1206;SDS011;593;53.184;8.216;2023-04-30T07:54:12;2.50;;;1.73;;
1206;SDS011;593;53.184;8.216;2023-04-30T07:56:37;3.63;;;1.67;;
1206;SDS011;593;53.184;8.216;2023-04-30T07:59:03;5.40;;;1.83;;
1206;SDS011;593;53.184;8.216;2023-04-30T08:01:29;5.10;;;2.00;;
1206;SDS011;593;53.184;8.216;2023-04-30T08:03:54;2.87;;;1.27;;
1206;SDS011;593;53.184;8.216;2023-04-30T08:06:20;5.30;;;1.87;;
1206;SDS011;593;53.184;8.216;2023-04-30T08:08:46;8.87;;;2.20;;
1206;SDS011;593;53.184;8.216;2023-04-30T08:11:12;1.37;;;1.27;;
1206;SDS011;593;53.184;8.216;2023-04-30T08:13:37;2.50;;;1.63;;
1206;SDS011;593;53.184;8.216;2023-04-30T08:16:03;4.00;;;1.77;;
1206;SDS011;593;53.184;8.216;2023-04-30T08:18:28;6.87;;;1.73;;
1206;SDS011;593;53.184;8.216;2023-04-30T08:20:56;2.60;;;1.70;;
1206;SDS011;593;53.184;8.216;2023-04-30T08:23:21;5.27;;;1.63;;
1206;SDS011;593;53.184;8.216;2023-04-30T08:25:46;6.73;;;1.60;;
1206;SDS011;593;53.184;8.216;2023-04-30T08:28:12;4.57;;;2.00;;
1206;SDS011;593;53.184;8.216;2023-04-30T08:30:38;2.70;;;1.70;;
1206;SDS011;593;53.184;8.216;2023-04-30T08:33:03;4.10;;;1.80;;
1206;SDS011;593;53.184;8.216;2023-04-30T08:35:28;4.20;;;1.47;;
1206;SDS011;593;53.184;8.216;2023-04-30T08:37:54;6.07;;;2.30;;
1206;SDS011;593;53.184;8.216;2023-04-30T08:40:19;3.40;;;1.30;;
1206;SDS011;593;53.184;8.216;2023-04-30T08:42:46;4.30;;;1.60;;
1206;SDS011;593;53.184;8.216;2023-04-30T08:45:24;2.93;;;1.93;;
1206;SDS011;593;53.184;8.216;2023-04-30T08:47:50;3.20;;;1.90;;
1206;SDS011;593;53.184;8.216;2023-04-30T08:50:16;4.70;;;2.37;;
1206;SDS011;593;53.184;8.216;2023-04-30T08:52:41;3.60;;;1.40;;
1206;SDS011;593;53.184;8.216;2023-04-30T08:55:07;2.70;;;1.70;;
1206;SDS011;593;53.184;8.216;2023-04-30T08:57:35;4.07;;;1.90;;
1206;SDS011;593;53.184;8.216;2023-04-30T09:00:02;1.73;;;1.60;;
1206;SDS011;593;53.184;8.216;2023-04-30T09:02:30;7.27;;;2.17;;
1206;SDS011;593;53.184;8.216;2023-04-30T09:04:56;4.30;;;2.20;;
1206;SDS011;593;53.184;8.216;2023-04-30T09:07:22;4.73;;;2.30;;
1206;SDS011;593;53.184;8.216;2023-04-30T09:09:51;2.80;;;1.60;;
1206;SDS011;593;53.184;8.216;2023-04-30T09:12:17;3.67;;;2.40;;
1206;SDS011;593;53.184;8.216;2023-04-30T09:17:29;8.73;;;1.77;;
1206;SDS011;593;53.184;8.216;2023-04-30T09:20:11;2.20;;;1.90;;
1206;SDS011;593;53.184;8.216;2023-04-30T09:22:41;3.80;;;1.80;;
1206;SDS011;593;53.184;8.216;2023-04-30T09:25:10;4.13;;;1.47;;
1206;SDS011;593;53.184;8.216;2023-04-30T09:27:39;3.23;;;1.90;;
1206;SDS011;593;53.184;8.216;2023-04-30T09:30:04;2.03;;;1.83;;
1206;SDS011;593;53.184;8.216;2023-04-30T09:32:31;3.53;;;1.93;;
1206;SDS011;593;53.184;8.216;2023-04-30T09:34:56;2.50;;;1.93;;
1206;SDS011;593;53.184;8.216;2023-04-30T09:37:25;8.83;;;2.10;;
1206;SDS011;593;53.184;8.216;2023-04-30T09:40:00;6.13;;;1.90;;
1206;SDS011;593;53.184;8.216;2023-04-30T09:42:26;3.63;;;1.53;;
1206;SDS011;593;53.184;8.216;2023-04-30T09:44:51;2.80;;;1.90;;
1206;SDS011;593;53.184;8.216;2023-04-30T09:47:17;6.00;;;2.27;;
1206;SDS011;593;53.184;8.216;2023-04-30T09:49:47;4.70;;;1.73;;
1206;SDS011;593;53.184;8.216;2023-04-30T09:52:15;7.10;;;1.60;;
1206;SDS011;593;53.184;8.216;2023-04-30T09:54:41;1.90;;;1.80;;
1206;SDS011;593;53.184;8.216;2023-04-30T09:57:09;2.73;;;2.53;;
1206;SDS011;593;53.184;8.216;2023-04-30T09:59:45;2.73;;;1.60;;
1206;SDS011;593;53.184;8.216;2023-04-30T10:02:12;2.07;;;1.50;;
1206;SDS011;593;53.184;8.216;2023-04-30T10:04:41;2.40;;;1.50;;
1206;SDS011;593;53.184;8.216;2023-04-30T10:07:08;5.03;;;1.70;;
1206;SDS011;593;53.184;8.216;2023-04-30T10:09:48;6.40;;;1.87;;
1206;SDS011;593;53.184;8.216;2023-04-30T10:12:15;5.57;;;1.77;;
1206;SDS011;593;53.184;8.216;2023-04-30T10:15:05;6.00;;;1.50;;
1206;SDS011;593;53.184;8.216;2023-04-30T10:17:39;8.20;;;2.30;;
1206;SDS011;593;53.184;8.216;2023-04-30T10:20:08;3.13;;;1.73;;
1206;SDS011;593;53.184;8.216;2023-04-30T10:22:34;2.47;;;1.57;;
1206;SDS011;593;53.184;8.216;2023-04-30T10:25:01;3.70;;;1.60;;
1206;SDS011;593;53.184;8.216;2023-04-30T10:27:27;4.10;;;1.53;;
1206;SDS011;593;53.184;8.216;2023-04-30T10:29:54;5.23;;;1.90;;
1206;SDS011;593;53.184;8.216;2023-04-30T10:32:19;10.73;;;2.03;;
1206;SDS011;593;53.184;8.216;2023-04-30T10:37:56;2.50;;;1.50;;
1206;SDS011;593;53.184;8.216;2023-04-30T10:40:39;11.53;;;1.70;;
1206;SDS011;593;53.184;8.216;2023-04-30T10:43:05;11.40;;;1.70;;
1206;SDS011;593;53.184;8.216;2023-04-30T10:45:34;17.43;;;2.90;;
1206;SDS011;593;53.184;8.216;2023-04-30T10:48:04;3.73;;;1.50;;
1206;SDS011;593;53.184;8.216;2023-04-30T10:50:30;3.40;;;1.90;;
1206;SDS011;593;53.184;8.216;2023-04-30T10:53:02;3.43;;;1.23;;
1206;SDS011;593;53.184;8.216;2023-04-30T10:55:29;2.50;;;1.40;;
1206;SDS011;593;53.184;8.216;2023-04-30T10:57:56;1.93;;;1.27;;
1206;SDS011;593;53.184;8.216;2023-04-30T11:00:26;3.00;;;1.77;;
1206;SDS011;593;53.184;8.216;2023-04-30T11:02:57;2.20;;;1.50;;
1206;SDS011;593;53.184;8.216;2023-04-30T11:05:35;3.80;;;1.70;;
1206;SDS011;593;53.184;8.216;2023-04-30T11:08:02;3.67;;;1.80;;
1206;SDS011;593;53.184;8.216;2023-04-30T11:10:33;4.53;;;1.30;;
1206;SDS011;593;53.184;8.216;2023-04-30T11:13:02;1.70;;;1.17;;
1206;SDS011;593;53.184;8.216;2023-04-30T11:15:39;1.77;;;1.67;;
1206;SDS011;593;53.184;8.216;2023-04-30T11:18:06;2.13;;;1.47;;
1206;SDS011;593;53.184;8.216;2023-04-30T11:20:32;3.73;;;1.37;;
1206;SDS011;593;53.184;8.216;2023-04-30T11:25:42;1.37;;;1.27;;
1206;SDS011;593;53.184;8.216;2023-04-30T11:28:15;3.53;;;2.03;;
1206;SDS011;593;53.184;8.216;2023-04-30T11:30:51;3.23;;;1.40;;
1206;SDS011;593;53.184;8.216;2023-04-30T11:33:18;1.67;;;1.43;;
1206;SDS011;593;53.184;8.216;2023-04-30T11:35:44;3.13;;;1.70;;
1206;SDS011;593;53.184;8.216;2023-04-30T11:38:13;1.57;;;1.20;;
1206;SDS011;593;53.184;8.216;2023-04-30T11:40:41;2.10;;;1.60;;
1206;SDS011;593;53.184;8.216;2023-04-30T11:43:06;3.30;;;1.60;;
1206;SDS011;593;53.184;8.216;2023-04-30T11:45:32;3.73;;;1.10;;
1206;SDS011;593;53.184;8.216;2023-04-30T11:47:58;2.07;;;1.40;;
1206;SDS011;593;53.184;8.216;2023-04-30T11:50:25;2.53;;;1.20;;
1206;SDS011;593;53.184;8.216;2023-04-30T11:52:53;4.40;;;1.47;;
1206;SDS011;593;53.184;8.216;2023-04-30T11:55:20;1.93;;;1.20;;
1206;SDS011;593;53.184;8.216;2023-04-30T11:57:56;1.53;;;1.20;;
1206;SDS011;593;53.184;8.216;2023-04-30T12:00:27;4.83;;;1.60;;
1206;SDS011;593;53.184;8.216;2023-04-30T12:02:54;1.97;;;1.30;;
1206;SDS011;593;53.184;8.216;2023-04-30T12:05:21;3.40;;;1.50;;
1206;SDS011;593;53.184;8.216;2023-04-30T12:07:48;3.10;;;1.17;;
1206;SDS011;593;53.184;8.216;2023-04-30T12:10:15;2.40;;;1.33;;
1206;SDS011;593;53.184;8.216;2023-04-30T12:12:42;3.37;;;1.10;;
1206;SDS011;593;53.184;8.216;2023-04-30T12:17:38;2.37;;;1.00;;
1206;SDS011;593;53.184;8.216;2023-04-30T12:20:04;1.50;;;1.40;;
1206;SDS011;593;53.184;8.216;2023-04-30T12:22:30;3.00;;;1.50;;
1206;SDS011;593;53.184;8.216;2023-04-30T12:24:55;1.97;;;1.27;;
1206;SDS011;593;53.184;8.216;2023-04-30T12:27:23;2.37;;;1.20;;
1206;SDS011;593;53.184;8.216;2023-04-30T12:29:48;3.43;;;1.20;;
1206;SDS011;593;53.184;8.216;2023-04-30T12:32:17;2.70;;;1.23;;
1206;SDS011;593;53.184;8.216;2023-04-30T12:34:43;1.27;;;1.13;;
1206;SDS011;593;53.184;8.216;2023-04-30T12:37:09;3.00;;;1.43;;
1206;SDS011;593;53.184;8.216;2023-04-30T12:39:34;1.73;;;1.20;;
1206;SDS011;593;53.184;8.216;2023-04-30T12:42:00;7.67;;;1.20;;
1206;SDS011;593;53.184;8.216;2023-04-30T12:44:27;2.90;;;1.10;;
1206;SDS011;593;53.184;8.216;2023-04-30T12:46:53;1.83;;;1.23;;
1206;SDS011;593;53.184;8.216;2023-04-30T12:49:24;2.13;;;1.30;;
1206;SDS011;593;53.184;8.216;2023-04-30T12:51:56;3.47;;;1.47;;
1206;SDS011;593;53.184;8.216;2023-04-30T12:54:23;1.70;;;1.50;;
1206;SDS011;593;53.184;8.216;2023-04-30T12:57:00;1.40;;;1.10;;
1206;SDS011;593;53.184;8.216;2023-04-30T12:59:27;2.60;;;1.53;;
1206;SDS011;593;53.184;8.216;2023-04-30T13:01:54;1.63;;;1.27;;
1206;SDS011;593;53.184;8.216;2023-04-30T13:04:19;1.73;;;1.10;;
1206;SDS011;593;53.184;8.216;2023-04-30T13:06:45;1.40;;;1.20;;
1206;SDS011;593;53.184;8.216;2023-04-30T13:09:10;2.57;;;1.30;;
1206;SDS011;593;53.184;8.216;2023-04-30T13:11:36;1.20;;;1.10;;
1206;SDS011;593;53.184;8.216;2023-04-30T13:14:02;1.27;;;1.10;;
1206;SDS011;593;53.184;8.216;2023-04-30T13:16:27;4.27;;;1.57;;
1206;SDS011;593;53.184;8.216;2023-04-30T13:18:54;1.97;;;1.17;;
1206;SDS011;593;53.184;8.216;2023-04-30T13:21:20;2.60;;;1.10;;
1206;SDS011;593;53.184;8.216;2023-04-30T13:23:45;1.30;;;1.00;;
1206;SDS011;593;53.184;8.216;2023-04-30T13:26:10;1.37;;;1.00;;
1206;SDS011;593;53.184;8.216;2023-04-30T13:28:36;2.63;;;1.27;;
1206;SDS011;593;53.184;8.216;2023-04-30T13:31:01;2.17;;;1.00;;
1206;SDS011;593;53.184;8.216;2023-04-30T13:33:26;4.00;;;1.07;;
1206;SDS011;593;53.184;8.216;2023-04-30T13:35:52;1.53;;;1.37;;
1206;SDS011;593;53.184;8.216;2023-04-30T13:38:17;3.37;;;1.00;;
1206;SDS011;593;53.184;8.216;2023-04-30T13:40:43;1.20;;;1.10;;
1206;SDS011;593;53.184;8.216;2023-04-30T13:43:08;1.73;;;0.80;;
1206;SDS011;593;53.184;8.216;2023-04-30T13:45:33;1.87;;;1.00;;
1206;SDS011;593;53.184;8.216;2023-04-30T13:47:59;1.77;;;1.03;;
1206;SDS011;593;53.184;8.216;2023-04-30T13:50:24;3.17;;;1.40;;
1206;SDS011;593;53.184;8.216;2023-04-30T13:52:49;1.73;;;1.10;;
1206;SDS011;593;53.184;8.216;2023-04-30T13:55:14;1.70;;;1.13;;
1206;SDS011;593;53.184;8.216;2023-04-30T13:57:40;1.53;;;1.10;;
1206;SDS011;593;53.184;8.216;2023-04-30T14:00:06;2.20;;;0.93;;
1206;SDS011;593;53.184;8.216;2023-04-30T14:02:32;1.27;;;1.17;;
1206;SDS011;593;53.184;8.216;2023-04-30T14:04:58;1.30;;;1.10;;
1206;SDS011;593;53.184;8.216;2023-04-30T14:07:27;4.10;;;1.10;;
1206;SDS011;593;53.184;8.216;2023-04-30T14:09:52;1.07;;;0.90;;
1206;SDS011;593;53.184;8.216;2023-04-30T14:12:17;1.13;;;1.03;;
1206;SDS011;593;53.184;8.216;2023-04-30T14:14:45;2.20;;;1.23;;
1206;SDS011;593;53.184;8.216;2023-04-30T14:17:11;1.30;;;1.20;;
1206;SDS011;593;53.184;8.216;2023-04-30T14:19:36;1.20;;;1.07;;
1206;SDS011;593;53.184;8.216;2023-04-30T14:22:01;1.67;;;0.80;;
1206;SDS011;593;53.184;8.216;2023-04-30T14:24:27;5.67;;;1.43;;
1206;SDS011;593;53.184;8.216;2023-04-30T14:26:53;1.10;;;1.00;;
1206;SDS011;593;53.184;8.216;2023-04-30T14:29:18;2.10;;;1.20;;
1206;SDS011;593;53.184;8.216;2023-04-30T14:31:45;3.23;;;0.90;;
1206;SDS011;593;53.184;8.216;2023-04-30T14:34:10;3.90;;;1.00;;
1206;SDS011;593;53.184;8.216;2023-04-30T14:36:37;0.70;;;0.70;;
1206;SDS011;593;53.184;8.216;2023-04-30T14:39:02;0.80;;;0.77;;
1206;SDS011;593;53.184;8.216;2023-04-30T14:41:28;0.93;;;0.90;;
1206;SDS011;593;53.184;8.216;2023-04-30T14:43:53;1.97;;;0.77;;
1206;SDS011;593;53.184;8.216;2023-04-30T14:46:19;2.40;;;1.07;;
1206;SDS011;593;53.184;8.216;2023-04-30T14:48:47;1.60;;;1.10;;
1206;SDS011;593;53.184;8.216;2023-04-30T14:51:13;1.30;;;0.83;;
1206;SDS011;593;53.184;8.216;2023-04-30T14:53:39;3.13;;;1.00;;
1206;SDS011;593;53.184;8.216;2023-04-30T14:56:05;1.10;;;0.90;;
1206;SDS011;593;53.184;8.216;2023-04-30T14:58:31;1.37;;;0.70;;
1206;SDS011;593;53.184;8.216;2023-04-30T15:00:56;1.23;;;0.80;;
1206;SDS011;593;53.184;8.216;2023-04-30T15:03:21;1.10;;;0.83;;
1206;SDS011;593;53.184;8.216;2023-04-30T15:05:47;1.40;;;1.30;;
1206;SDS011;593;53.184;8.216;2023-04-30T15:08:13;1.17;;;1.07;;
1206;SDS011;593;53.184;8.216;2023-04-30T15:10:40;1.20;;;1.00;;
1206;SDS011;593;53.184;8.216;2023-04-30T15:13:05;2.20;;;0.93;;
1206;SDS011;593;53.184;8.216;2023-04-30T15:15:31;1.63;;;0.70;;
1206;SDS011;593;53.184;8.216;2023-04-30T15:17:56;1.40;;;0.73;;
1206;SDS011;593;53.184;8.216;2023-04-30T15:20:22;3.17;;;0.90;;
1206;SDS011;593;53.184;8.216;2023-04-30T15:22:48;1.17;;;0.80;;
1206;SDS011;593;53.184;8.216;2023-04-30T15:25:14;1.43;;;1.33;;
1206;SDS011;593;53.184;8.216;2023-04-30T15:27:40;1.20;;;0.87;;
1206;SDS011;593;53.184;8.216;2023-04-30T15:30:06;1.57;;;1.07;;
1206;SDS011;593;53.184;8.216;2023-04-30T15:32:31;2.73;;;0.80;;
1206;SDS011;593;53.184;8.216;2023-04-30T15:34:57;1.80;;;1.00;;
1206;SDS011;593;53.184;8.216;2023-04-30T15:37:22;1.53;;;1.33;;
1206;SDS011;593;53.184;8.216;2023-04-30T15:39:48;1.70;;;1.20;;
1206;SDS011;593;53.184;8.216;2023-04-30T15:42:14;1.50;;;1.00;;
1206;SDS011;593;53.184;8.216;2023-04-30T15:44:39;2.40;;;0.90;;
1206;SDS011;593;53.184;8.216;2023-04-30T15:47:04;1.00;;;1.00;;
1206;SDS011;593;53.184;8.216;2023-04-30T15:49:30;1.80;;;0.83;;
1206;SDS011;593;53.184;8.216;2023-04-30T15:51:55;2.00;;;1.00;;
1206;SDS011;593;53.184;8.216;2023-04-30T15:54:20;2.10;;;0.90;;